createdAt,value
2022-09-10T00:04:34.502Z,0.4
2022-09-10T00:10:54.515Z,0.4
2022-09-10T00:17:17.653Z,2.3
2022-09-10T00:23:37.550Z,2.3
2022-09-10T00:30:00.505Z,0.5
2022-09-10T00:36:20.543Z,0.5
2022-09-10T00:42:43.628Z,0.4
2022-09-10T00:49:03.536Z,0.4
2022-09-10T00:55:26.621Z,0.5
2022-09-10T01:01:46.535Z,0.5
2022-09-10T01:08:09.677Z,0.2
2022-09-10T01:14:29.645Z,0.2
2022-09-10T01:20:52.594Z,1.3
2022-09-10T01:27:12.594Z,1.3
2022-09-10T01:33:35.493Z,0.3
2022-09-10T01:39:55.548Z,0.3
2022-09-10T01:46:18.599Z,0.3
2022-09-10T01:52:38.520Z,0.3
2022-09-10T01:59:01.616Z,2.5
2022-09-10T02:05:21.607Z,2.5
2022-09-10T02:11:44.617Z,0.6
2022-09-10T02:18:04.469Z,0.6
2022-09-10T02:24:27.617Z,0.4
2022-09-10T02:30:47.487Z,0.4
2022-09-10T02:37:10.608Z,0.9
2022-09-10T02:43:30.534Z,0.9
2022-09-10T02:49:53.547Z,0.3
2022-09-10T02:56:13.551Z,0.3
2022-09-10T03:02:36.543Z,0.4
2022-09-10T03:08:56.720Z,0.4
2022-09-10T03:15:19.590Z,0.2
2022-09-10T03:37:32.466Z,0.6
2022-09-10T03:43:52.536Z,0.6
2022-09-10T03:50:15.521Z,0.1
2022-09-10T03:56:35.493Z,0.1
2022-09-10T04:02:58.518Z,0.4
2022-09-10T04:09:18.475Z,0.4
2022-09-10T04:15:41.549Z,0.5
2022-09-10T04:22:01.659Z,0.5
2022-09-10T04:28:24.492Z,0.3
2022-09-10T04:34:44.485Z,0.3
2022-09-10T04:41:07.604Z,0.5
2022-09-10T04:47:27.536Z,0.5
2022-09-10T04:53:50.617Z,0.1
2022-09-10T05:00:10.557Z,0.1
2022-09-10T05:06:33.530Z,0.7
2022-09-10T05:12:53.606Z,0.7
2022-09-10T05:19:16.513Z,0.2
2022-09-10T05:25:36.557Z,0.2
2022-09-10T05:31:59.545Z,0.8
2022-09-10T05:38:19.586Z,0.8
2022-09-10T05:44:42.527Z,0
2022-09-10T05:51:02.564Z,0
2022-09-10T05:57:25.542Z,0.5
2022-09-10T06:03:45.495Z,0.5
2022-09-10T06:10:08.580Z,0.2
2022-09-10T06:16:28.645Z,0.2
2022-09-10T06:22:51.479Z,0.6
2022-09-10T06:29:11.539Z,0.6
2022-09-10T06:35:34.520Z,0.9
2022-09-10T06:41:54.493Z,0.9
2022-09-10T06:48:38.469Z,0.4
2022-09-10T06:54:37.565Z,0.4
2022-09-10T07:01:00.618Z,0.1
2022-09-10T07:07:26.607Z,0.1
2022-09-10T07:13:49.560Z,1
2022-09-10T07:20:09.540Z,1
2022-09-10T07:26:32.584Z,0.5
2022-09-10T07:32:52.517Z,0.5
2022-09-10T07:39:15.606Z,0.5
2022-09-10T07:45:35.561Z,0.5
2022-09-10T07:52:00.058Z,0.3
2022-09-10T07:58:18.618Z,0.3
2022-09-10T08:04:41.520Z,0.3
2022-09-10T08:11:01.593Z,0.3
2022-09-10T08:17:24.485Z,0.9
2022-09-10T08:23:44.671Z,0.9
2022-09-10T08:30:07.661Z,0.3
2022-09-10T08:36:27.557Z,0.3
2022-09-10T08:54:16.113Z,0.6
2022-09-10T09:00:35.468Z,0.6
2022-09-10T09:06:58.498Z,0.9
2022-09-10T09:13:18.535Z,0.9
2022-09-10T09:19:41.511Z,0.5
2022-09-10T09:26:01.708Z,0.5
2022-09-10T09:32:24.598Z,0.9
2022-09-10T09:38:44.680Z,0.9
2022-09-10T09:45:07.648Z,0.6
2022-09-10T09:51:27.622Z,0.6
2022-09-10T09:57:50.626Z,2.3
2022-09-10T10:04:10.594Z,2.3
2022-09-10T10:10:33.566Z,0.6
2022-09-10T10:16:55.285Z,0.6
2022-09-10T10:23:16.535Z,0.9
2022-09-10T10:29:36.736Z,0.9
2022-09-10T10:35:59.585Z,0.4
2022-09-10T10:42:19.565Z,0.4
2022-09-10T10:48:42.620Z,1.1
2022-09-10T10:55:02.609Z,1.1
2022-09-10T11:01:25.642Z,0.9
2022-09-10T11:07:45.581Z,0.9
2022-09-10T11:14:08.640Z,0.5
2022-09-10T11:20:29.844Z,0.5
2022-09-10T11:26:51.580Z,1.6
2022-09-10T11:33:11.603Z,1.6
2022-09-10T11:39:34.627Z,1.4
2022-09-10T11:45:54.655Z,1.4
2022-09-10T11:52:17.597Z,0.3
2022-09-10T11:58:37.615Z,0.3
2022-09-10T12:05:00.609Z,0.9
2022-09-10T12:11:20.652Z,0.9
2022-09-10T12:17:43.593Z,0.9
2022-09-10T12:24:03.707Z,0.9
2022-09-10T12:30:26.514Z,0.5
2022-09-10T12:36:46.586Z,0.5
2022-09-10T12:43:09.727Z,0.6
2022-09-10T12:49:29.593Z,0.6
2022-09-10T12:55:52.688Z,0.6
2022-09-10T13:02:12.679Z,0.6
2022-09-10T13:08:35.529Z,0.9
2022-09-10T13:14:55.522Z,0.9
2022-09-10T13:21:18.636Z,1.8
2022-09-10T13:27:38.691Z,1.8
2022-09-10T13:34:01.556Z,0.8
2022-09-10T13:40:21.510Z,0.8
2022-09-10T13:46:44.566Z,0.7
2022-09-10T14:04:35.892Z,2.3
2022-09-10T14:10:58.040Z,4.9
2022-09-10T14:17:17.472Z,4.9
2022-09-10T14:23:40.603Z,4.9
2022-09-10T14:30:00.499Z,4.9
2022-09-10T14:36:23.538Z,1.8
2022-09-10T14:42:43.590Z,1.8
2022-09-10T14:49:06.480Z,2
2022-09-10T14:55:27.319Z,2
2022-09-10T15:01:50.635Z,2.6
2022-09-10T15:08:10.578Z,2.6
2022-09-10T15:14:33.739Z,3.1
2022-09-10T15:20:53.704Z,3.1
2022-09-10T15:27:16.755Z,2.8
2022-09-10T15:33:37.707Z,2.8
2022-09-10T15:40:00.886Z,2.8
2022-09-10T15:46:20.625Z,2.8
2022-09-10T15:52:43.487Z,2.4
2022-09-10T15:59:03.571Z,2.4
2022-09-10T16:05:26.479Z,1.2
2022-09-10T16:11:46.511Z,1.2
2022-09-10T16:18:09.593Z,2.4
2022-09-10T16:24:29.490Z,2.4
2022-09-10T16:30:52.591Z,2.8
2022-09-10T16:37:12.513Z,2.8
2022-09-10T16:43:35.535Z,1.2
2022-09-10T16:49:55.514Z,1.2
2022-09-10T16:56:18.530Z,1.6
2022-09-10T17:02:38.868Z,1.6
2022-09-10T17:09:01.795Z,1.8
2022-09-10T17:15:21.901Z,1.8
2022-09-10T17:21:44.508Z,1.6
2022-09-10T17:28:04.540Z,1.6
2022-09-10T17:34:27.564Z,2.7
2022-09-10T17:40:47.575Z,2.7
2022-09-10T17:47:10.589Z,4.5
2022-09-10T17:53:30.580Z,4.5
2022-09-10T17:59:53.590Z,2.4
2022-09-10T18:06:13.519Z,2.4
2022-09-10T18:12:36.545Z,2.1
2022-09-10T18:18:56.616Z,2.1
2022-09-10T18:25:19.549Z,4.9
2022-09-10T18:31:39.558Z,4.9
2022-09-10T18:38:02.651Z,8.2
2022-09-10T18:44:22.556Z,8.2
2022-09-10T18:50:45.728Z,5.9
2022-09-10T18:57:05.501Z,5.9
2022-09-10T19:03:28.523Z,5.5
2022-09-10T19:19:17.446Z,9.9
2022-09-10T19:25:37.474Z,9.9
2022-09-10T19:32:00.605Z,10.4
2022-09-10T19:38:36.456Z,10.4
2022-09-10T19:44:43.599Z,3.8
2022-09-10T19:51:03.629Z,3.8
2022-09-10T19:57:26.607Z,5.7
2022-09-10T20:03:46.496Z,5.7
2022-09-10T20:10:09.651Z,7.8
2022-09-10T20:16:29.552Z,7.8
2022-09-10T20:22:52.531Z,5.9
2022-09-10T20:29:12.530Z,5.9
2022-09-10T20:35:35.602Z,8.3
2022-09-10T20:41:55.491Z,8.3
2022-09-10T20:48:18.654Z,7.3
2022-09-10T20:54:38.560Z,7.3
2022-09-10T21:01:01.494Z,5.9
2022-09-10T21:07:21.671Z,5.9
2022-09-10T21:13:44.627Z,11.8
2022-09-10T21:20:04.690Z,11.8
2022-09-10T21:26:27.642Z,6.9
2022-09-10T21:32:47.502Z,6.9
2022-09-10T21:39:10.574Z,8.5
2022-09-10T21:45:30.536Z,8.5
2022-09-10T21:51:53.526Z,9.2
2022-09-10T21:58:13.521Z,9.2
2022-09-10T22:22:31.545Z,18.6
2022-09-10T22:28:51.458Z,18.6
2022-09-10T22:35:14.532Z,18.6
2022-09-10T22:41:34.717Z,18.6
2022-09-10T22:47:57.571Z,5.3
2022-09-10T22:54:17.649Z,5.3
2022-09-10T23:00:40.612Z,10.3
2022-09-10T23:07:00.534Z,10.3
2022-09-10T23:13:23.568Z,6.8
2022-09-10T23:19:43.533Z,6.8
2022-09-10T23:26:06.534Z,10.2
2022-09-10T23:32:26.644Z,10.2
2022-09-10T23:38:49.511Z,11.1
2022-09-10T23:45:09.491Z,11.1
2022-09-10T23:51:32.609Z,9.6
2022-09-10T23:57:52.507Z,9.6
